sensor_id;sensor_type;location;lat;lon;timestamp;P1;durP1;ratioP1;P2;durP2;ratioP2
7485;SDS011;3784;54.098;9.998;2022-11-15T00:01:15;56.70;;;38.80;;
7485;SDS011;3784;54.098;9.998;2022-11-15T00:03:43;54.53;;;37.63;;
7485;SDS011;3784;54.098;9.998;2022-11-15T00:06:10;62.33;;;38.27;;
7485;SDS011;3784;54.098;9.998;2022-11-15T00:08:36;57.03;;;37.00;;
7485;SDS011;3784;54.098;9.998;2022-11-15T00:11:03;62.03;;;38.80;;
7485;SDS011;3784;54.098;9.998;2022-11-15T00:13:29;55.43;;;38.80;;
7485;SDS011;3784;54.098;9.998;2022-11-15T00:15:57;54.97;;;37.83;;
7485;SDS011;3784;54.098;9.998;2022-11-15T00:18:24;53.53;;;37.33;;
7485;SDS011;3784;54.098;9.998;2022-11-15T00:20:51;53.30;;;36.30;;
7485;SDS011;3784;54.098;9.998;2022-11-15T00:23:18;60.20;;;39.63;;
7485;SDS011;3784;54.098;9.998;2022-11-15T00:25:44;65.87;;;40.47;;
7485;SDS011;3784;54.098;9.998;2022-11-15T00:31:15;55.87;;;37.43;;
7485;SDS011;3784;54.098;9.998;2022-11-15T00:33:42;59.27;;;39.90;;
7485;SDS011;3784;54.098;9.998;2022-11-15T00:36:09;56.30;;;36.73;;
7485;SDS011;3784;54.098;9.998;2022-11-15T00:38:38;58.23;;;38.03;;
7485;SDS011;3784;54.098;9.998;2022-11-15T00:41:05;54.97;;;37.73;;
7485;SDS011;3784;54.098;9.998;2022-11-15T00:43:35;54.80;;;37.10;;
7485;SDS011;3784;54.098;9.998;2022-11-15T00:46:02;56.33;;;37.47;;
7485;SDS011;3784;54.098;9.998;2022-11-15T00:48:28;54.80;;;38.07;;
7485;SDS011;3784;54.098;9.998;2022-11-15T00:51:11;54.17;;;36.83;;
7485;SDS011;3784;54.098;9.998;2022-11-15T00:53:38;55.67;;;36.53;;
7485;SDS011;3784;54.098;9.998;2022-11-15T00:56:04;56.47;;;38.17;;
7485;SDS011;3784;54.098;9.998;2022-11-15T00:58:31;53.23;;;37.10;;
7485;SDS011;3784;54.098;9.998;2022-11-15T01:01:05;54.70;;;37.23;;
7485;SDS011;3784;54.098;9.998;2022-11-15T01:03:38;54.60;;;37.07;;
7485;SDS011;3784;54.098;9.998;2022-11-15T01:06:06;55.77;;;37.53;;
7485;SDS011;3784;54.098;9.998;2022-11-15T01:08:34;56.87;;;37.20;;
7485;SDS011;3784;54.098;9.998;2022-11-15T01:11:04;58.20;;;37.30;;
7485;SDS011;3784;54.098;9.998;2022-11-15T01:13:33;56.00;;;37.93;;
7485;SDS011;3784;54.098;9.998;2022-11-15T01:16:07;55.17;;;37.70;;
7485;SDS011;3784;54.098;9.998;2022-11-15T01:18:35;54.73;;;37.37;;
7485;SDS011;3784;54.098;9.998;2022-11-15T01:21:09;55.23;;;36.90;;
7485;SDS011;3784;54.098;9.998;2022-11-15T01:23:37;59.73;;;38.07;;
7485;SDS011;3784;54.098;9.998;2022-11-15T01:26:04;58.17;;;36.53;;
7485;SDS011;3784;54.098;9.998;2022-11-15T01:28:34;55.50;;;37.50;;
7485;SDS011;3784;54.098;9.998;2022-11-15T01:31:02;52.80;;;36.93;;
7485;SDS011;3784;54.098;9.998;2022-11-15T01:33:30;52.77;;;36.83;;
7485;SDS011;3784;54.098;9.998;2022-11-15T01:36:03;58.40;;;37.70;;
7485;SDS011;3784;54.098;9.998;2022-11-15T01:38:31;54.00;;;38.33;;
7485;SDS011;3784;54.098;9.998;2022-11-15T01:40:58;56.97;;;38.03;;
7485;SDS011;3784;54.098;9.998;2022-11-15T01:45:56;56.47;;;37.80;;
7485;SDS011;3784;54.098;9.998;2022-11-15T01:48:33;55.67;;;37.40;;
7485;SDS011;3784;54.098;9.998;2022-11-15T01:51:01;56.63;;;37.20;;
7485;SDS011;3784;54.098;9.998;2022-11-15T01:53:30;53.90;;;37.40;;
7485;SDS011;3784;54.098;9.998;2022-11-15T01:55:58;55.57;;;38.33;;
7485;SDS011;3784;54.098;9.998;2022-11-15T01:58:29;51.07;;;36.13;;
7485;SDS011;3784;54.098;9.998;2022-11-15T02:00:55;56.63;;;38.17;;
7485;SDS011;3784;54.098;9.998;2022-11-15T02:03:22;54.07;;;36.13;;
7485;SDS011;3784;54.098;9.998;2022-11-15T02:05:52;50.83;;;35.63;;
7485;SDS011;3784;54.098;9.998;2022-11-15T02:08:19;51.57;;;35.53;;
7485;SDS011;3784;54.098;9.998;2022-11-15T02:10:46;54.97;;;37.40;;
7485;SDS011;3784;54.098;9.998;2022-11-15T02:13:14;56.67;;;37.90;;
7485;SDS011;3784;54.098;9.998;2022-11-15T02:15:58;51.63;;;37.10;;
7485;SDS011;3784;54.098;9.998;2022-11-15T02:18:33;58.40;;;37.33;;
7485;SDS011;3784;54.098;9.998;2022-11-15T02:21:07;50.90;;;36.27;;
7485;SDS011;3784;54.098;9.998;2022-11-15T02:23:48;56.30;;;37.27;;
7485;SDS011;3784;54.098;9.998;2022-11-15T02:26:36;50.97;;;37.67;;
7485;SDS011;3784;54.098;9.998;2022-11-15T02:29:10;51.00;;;35.33;;
7485;SDS011;3784;54.098;9.998;2022-11-15T02:31:53;51.07;;;34.53;;
7485;SDS011;3784;54.098;9.998;2022-11-15T02:41:06;47.83;;;35.37;;
7485;SDS011;3784;54.098;9.998;2022-11-15T02:43:43;53.50;;;36.20;;
7485;SDS011;3784;54.098;9.998;2022-11-15T02:46:41;50.97;;;35.87;;
7485;SDS011;3784;54.098;9.998;2022-11-15T02:49:31;53.33;;;35.20;;
7485;SDS011;3784;54.098;9.998;2022-11-15T02:51:59;51.30;;;35.93;;
7485;SDS011;3784;54.098;9.998;2022-11-15T02:54:26;45.07;;;33.63;;
7485;SDS011;3784;54.098;9.998;2022-11-15T02:56:56;46.47;;;35.00;;
7485;SDS011;3784;54.098;9.998;2022-11-15T03:02:27;44.73;;;32.47;;
7485;SDS011;3784;54.098;9.998;2022-11-15T03:08:32;43.57;;;31.67;;
7485;SDS011;3784;54.098;9.998;2022-11-15T03:11:10;43.10;;;32.07;;
7485;SDS011;3784;54.098;9.998;2022-11-15T03:16:08;46.10;;;33.80;;
7485;SDS011;3784;54.098;9.998;2022-11-15T03:18:38;42.60;;;32.73;;
7485;SDS011;3784;54.098;9.998;2022-11-15T03:21:08;46.73;;;34.20;;
7485;SDS011;3784;54.098;9.998;2022-11-15T03:23:43;60.43;;;35.67;;
7485;SDS011;3784;54.098;9.998;2022-11-15T03:26:11;48.27;;;32.70;;
7485;SDS011;3784;54.098;9.998;2022-11-15T03:28:47;40.10;;;31.53;;
7485;SDS011;3784;54.098;9.998;2022-11-15T03:31:18;41.90;;;32.27;;
7485;SDS011;3784;54.098;9.998;2022-11-15T03:34:04;44.03;;;33.43;;
7485;SDS011;3784;54.098;9.998;2022-11-15T03:36:33;49.67;;;33.60;;
7485;SDS011;3784;54.098;9.998;2022-11-15T03:39:02;50.37;;;33.97;;
7485;SDS011;3784;54.098;9.998;2022-11-15T03:41:36;48.47;;;34.60;;
7485;SDS011;3784;54.098;9.998;2022-11-15T03:46:58;46.20;;;32.83;;
7485;SDS011;3784;54.098;9.998;2022-11-15T03:49:39;48.90;;;34.07;;
7485;SDS011;3784;54.098;9.998;2022-11-15T03:52:09;48.10;;;34.33;;
7485;SDS011;3784;54.098;9.998;2022-11-15T03:54:36;49.37;;;34.00;;
7485;SDS011;3784;54.098;9.998;2022-11-15T03:57:02;52.20;;;34.60;;
7485;SDS011;3784;54.098;9.998;2022-11-15T03:59:29;50.53;;;34.57;;
7485;SDS011;3784;54.098;9.998;2022-11-15T04:01:55;48.50;;;34.97;;
7485;SDS011;3784;54.098;9.998;2022-11-15T04:04:22;51.73;;;35.30;;
7485;SDS011;3784;54.098;9.998;2022-11-15T04:06:48;49.13;;;35.30;;
7485;SDS011;3784;54.098;9.998;2022-11-15T04:09:15;47.00;;;33.90;;
7485;SDS011;3784;54.098;9.998;2022-11-15T04:11:41;46.60;;;34.23;;
7485;SDS011;3784;54.098;9.998;2022-11-15T04:14:08;48.63;;;35.17;;
7485;SDS011;3784;54.098;9.998;2022-11-15T04:16:34;49.13;;;35.37;;
7485;SDS011;3784;54.098;9.998;2022-11-15T04:19:08;49.07;;;33.57;;
7485;SDS011;3784;54.098;9.998;2022-11-15T04:22:04;47.07;;;33.77;;
7485;SDS011;3784;54.098;9.998;2022-11-15T04:24:49;45.90;;;33.60;;
7485;SDS011;3784;54.098;9.998;2022-11-15T04:27:15;49.67;;;33.73;;
7485;SDS011;3784;54.098;9.998;2022-11-15T04:29:42;47.23;;;33.50;;
7485;SDS011;3784;54.098;9.998;2022-11-15T04:32:08;48.10;;;34.70;;
7485;SDS011;3784;54.098;9.998;2022-11-15T04:34:35;50.50;;;34.20;;
7485;SDS011;3784;54.098;9.998;2022-11-15T04:39:36;53.93;;;34.93;;
7485;SDS011;3784;54.098;9.998;2022-11-15T04:42:02;47.87;;;34.27;;
7485;SDS011;3784;54.098;9.998;2022-11-15T04:44:29;52.13;;;35.23;;
7485;SDS011;3784;54.098;9.998;2022-11-15T04:46:55;46.97;;;33.40;;
7485;SDS011;3784;54.098;9.998;2022-11-15T04:49:22;47.13;;;32.80;;
7485;SDS011;3784;54.098;9.998;2022-11-15T04:51:49;43.20;;;31.97;;
7485;SDS011;3784;54.098;9.998;2022-11-15T04:54:15;48.73;;;33.30;;
7485;SDS011;3784;54.098;9.998;2022-11-15T04:56:42;45.57;;;31.83;;
7485;SDS011;3784;54.098;9.998;2022-11-15T04:59:08;44.47;;;30.87;;
7485;SDS011;3784;54.098;9.998;2022-11-15T05:01:34;42.57;;;31.50;;
7485;SDS011;3784;54.098;9.998;2022-11-15T05:04:08;43.43;;;32.20;;
7485;SDS011;3784;54.098;9.998;2022-11-15T05:06:48;45.60;;;33.03;;
7485;SDS011;3784;54.098;9.998;2022-11-15T05:09:16;40.80;;;30.90;;
7485;SDS011;3784;54.098;9.998;2022-11-15T05:11:43;41.10;;;32.07;;
7485;SDS011;3784;54.098;9.998;2022-11-15T05:14:10;41.83;;;32.03;;
7485;SDS011;3784;54.098;9.998;2022-11-15T05:16:37;43.77;;;31.43;;
7485;SDS011;3784;54.098;9.998;2022-11-15T05:19:04;43.70;;;32.13;;
7485;SDS011;3784;54.098;9.998;2022-11-15T05:21:31;47.07;;;32.67;;
7485;SDS011;3784;54.098;9.998;2022-11-15T05:23:58;43.47;;;32.63;;
7485;SDS011;3784;54.098;9.998;2022-11-15T05:26:24;40.43;;;30.87;;
7485;SDS011;3784;54.098;9.998;2022-11-15T05:28:51;43.23;;;32.77;;
7485;SDS011;3784;54.098;9.998;2022-11-15T05:31:21;45.27;;;32.37;;
7485;SDS011;3784;54.098;9.998;2022-11-15T05:33:49;44.13;;;32.07;;
7485;SDS011;3784;54.098;9.998;2022-11-15T05:38:52;43.17;;;31.83;;
7485;SDS011;3784;54.098;9.998;2022-11-15T05:41:20;47.70;;;32.77;;
7485;SDS011;3784;54.098;9.998;2022-11-15T05:43:50;39.77;;;31.20;;
7485;SDS011;3784;54.098;9.998;2022-11-15T05:46:17;39.90;;;31.90;;
7485;SDS011;3784;54.098;9.998;2022-11-15T05:48:44;38.80;;;29.57;;
7485;SDS011;3784;54.098;9.998;2022-11-15T05:51:13;39.63;;;30.10;;
7485;SDS011;3784;54.098;9.998;2022-11-15T05:53:41;43.07;;;31.97;;
7485;SDS011;3784;54.098;9.998;2022-11-15T05:56:08;40.97;;;30.83;;
7485;SDS011;3784;54.098;9.998;2022-11-15T05:58:35;41.10;;;30.47;;
7485;SDS011;3784;54.098;9.998;2022-11-15T06:01:02;43.23;;;32.80;;
7485;SDS011;3784;54.098;9.998;2022-11-15T06:03:29;38.17;;;30.97;;
7485;SDS011;3784;54.098;9.998;2022-11-15T06:05:56;41.23;;;30.97;;
7485;SDS011;3784;54.098;9.998;2022-11-15T06:08:23;39.23;;;30.07;;
7485;SDS011;3784;54.098;9.998;2022-11-15T06:10:49;37.13;;;29.37;;
7485;SDS011;3784;54.098;9.998;2022-11-15T06:13:16;39.70;;;31.87;;
7485;SDS011;3784;54.098;9.998;2022-11-15T06:15:42;35.70;;;30.90;;
7485;SDS011;3784;54.098;9.998;2022-11-15T06:18:08;37.33;;;29.87;;
7485;SDS011;3784;54.098;9.998;2022-11-15T06:20:35;41.10;;;31.83;;
7485;SDS011;3784;54.098;9.998;2022-11-15T06:23:03;42.13;;;31.57;;
7485;SDS011;3784;54.098;9.998;2022-11-15T06:25:30;48.33;;;35.03;;
7485;SDS011;3784;54.098;9.998;2022-11-15T06:27:57;52.10;;;34.93;;
7485;SDS011;3784;54.098;9.998;2022-11-15T06:30:25;49.83;;;35.63;;
7485;SDS011;3784;54.098;9.998;2022-11-15T06:32:58;46.43;;;34.37;;
7485;SDS011;3784;54.098;9.998;2022-11-15T06:35:25;47.40;;;34.63;;
7485;SDS011;3784;54.098;9.998;2022-11-15T06:37:52;49.07;;;36.83;;
7485;SDS011;3784;54.098;9.998;2022-11-15T06:40:18;48.27;;;36.40;;
7485;SDS011;3784;54.098;9.998;2022-11-15T06:42:45;51.30;;;37.53;;
7485;SDS011;3784;54.098;9.998;2022-11-15T06:45:11;48.27;;;35.10;;
7485;SDS011;3784;54.098;9.998;2022-11-15T06:47:47;47.80;;;35.13;;
7485;SDS011;3784;54.098;9.998;2022-11-15T06:50:14;47.50;;;34.53;;
7485;SDS011;3784;54.098;9.998;2022-11-15T06:52:40;51.23;;;35.27;;
7485;SDS011;3784;54.098;9.998;2022-11-15T06:55:07;47.83;;;34.97;;
7485;SDS011;3784;54.098;9.998;2022-11-15T06:57:35;44.40;;;33.97;;
7485;SDS011;3784;54.098;9.998;2022-11-15T07:00:13;41.53;;;32.17;;
7485;SDS011;3784;54.098;9.998;2022-11-15T07:02:40;46.63;;;33.80;;
7485;SDS011;3784;54.098;9.998;2022-11-15T07:05:06;43.57;;;32.10;;
7485;SDS011;3784;54.098;9.998;2022-11-15T07:07:33;47.17;;;32.07;;
7485;SDS011;3784;54.098;9.998;2022-11-15T07:09:59;44.60;;;32.33;;
7485;SDS011;3784;54.098;9.998;2022-11-15T07:12:26;41.57;;;31.50;;
7485;SDS011;3784;54.098;9.998;2022-11-15T07:14:52;41.13;;;31.23;;
7485;SDS011;3784;54.098;9.998;2022-11-15T07:17:19;44.07;;;32.33;;
7485;SDS011;3784;54.098;9.998;2022-11-15T07:19:45;41.70;;;31.10;;
7485;SDS011;3784;54.098;9.998;2022-11-15T07:22:12;39.37;;;30.00;;
7485;SDS011;3784;54.098;9.998;2022-11-15T07:24:38;42.20;;;29.10;;
7485;SDS011;3784;54.098;9.998;2022-11-15T07:27:05;43.00;;;30.57;;
7485;SDS011;3784;54.098;9.998;2022-11-15T07:29:31;40.83;;;28.87;;
7485;SDS011;3784;54.098;9.998;2022-11-15T07:31:58;37.83;;;29.10;;
7485;SDS011;3784;54.098;9.998;2022-11-15T07:34:25;38.13;;;29.07;;
7485;SDS011;3784;54.098;9.998;2022-11-15T07:36:52;36.23;;;27.70;;
7485;SDS011;3784;54.098;9.998;2022-11-15T07:39:18;34.50;;;28.13;;
7485;SDS011;3784;54.098;9.998;2022-11-15T07:41:44;32.53;;;26.70;;
7485;SDS011;3784;54.098;9.998;2022-11-15T07:44:12;38.07;;;28.23;;
7485;SDS011;3784;54.098;9.998;2022-11-15T07:46:38;35.00;;;27.53;;
7485;SDS011;3784;54.098;9.998;2022-11-15T07:49:05;35.13;;;28.23;;
7485;SDS011;3784;54.098;9.998;2022-11-15T07:51:31;35.10;;;26.70;;
7485;SDS011;3784;54.098;9.998;2022-11-15T07:53:58;37.67;;;28.00;;
7485;SDS011;3784;54.098;9.998;2022-11-15T07:56:24;33.90;;;27.77;;
7485;SDS011;3784;54.098;9.998;2022-11-15T07:58:51;38.90;;;28.67;;
7485;SDS011;3784;54.098;9.998;2022-11-15T08:01:17;34.40;;;26.63;;
7485;SDS011;3784;54.098;9.998;2022-11-15T08:03:44;33.10;;;27.03;;
7485;SDS011;3784;54.098;9.998;2022-11-15T08:06:10;34.87;;;27.20;;
7485;SDS011;3784;54.098;9.998;2022-11-15T08:08:37;34.07;;;26.80;;
7485;SDS011;3784;54.098;9.998;2022-11-15T08:11:03;32.23;;;26.00;;
7485;SDS011;3784;54.098;9.998;2022-11-15T08:13:30;35.03;;;26.43;;
7485;SDS011;3784;54.098;9.998;2022-11-15T08:15:58;32.50;;;26.30;;
7485;SDS011;3784;54.098;9.998;2022-11-15T08:18:25;37.13;;;27.80;;
7485;SDS011;3784;54.098;9.998;2022-11-15T08:20:52;36.53;;;28.23;;
7485;SDS011;3784;54.098;9.998;2022-11-15T08:23:18;35.20;;;26.70;;
7485;SDS011;3784;54.098;9.998;2022-11-15T08:25:45;34.23;;;26.13;;
7485;SDS011;3784;54.098;9.998;2022-11-15T08:28:11;34.83;;;26.87;;
7485;SDS011;3784;54.098;9.998;2022-11-15T08:30:39;32.37;;;25.50;;
7485;SDS011;3784;54.098;9.998;2022-11-15T08:33:12;31.30;;;25.40;;
7485;SDS011;3784;54.098;9.998;2022-11-15T08:35:40;29.03;;;24.97;;
7485;SDS011;3784;54.098;9.998;2022-11-15T08:38:07;29.50;;;24.23;;
7485;SDS011;3784;54.098;9.998;2022-11-15T08:40:34;30.13;;;24.67;;
7485;SDS011;3784;54.098;9.998;2022-11-15T08:43:01;33.17;;;25.00;;
7485;SDS011;3784;54.098;9.998;2022-11-15T08:45:29;32.40;;;25.30;;
7485;SDS011;3784;54.098;9.998;2022-11-15T08:47:56;28.80;;;24.00;;
7485;SDS011;3784;54.098;9.998;2022-11-15T08:50:22;31.57;;;25.17;;
7485;SDS011;3784;54.098;9.998;2022-11-15T08:52:49;28.97;;;24.37;;
7485;SDS011;3784;54.098;9.998;2022-11-15T08:55:16;30.30;;;24.70;;
7485;SDS011;3784;54.098;9.998;2022-11-15T08:57:43;32.00;;;25.23;;
7485;SDS011;3784;54.098;9.998;2022-11-15T09:00:09;30.50;;;23.67;;
7485;SDS011;3784;54.098;9.998;2022-11-15T09:02:38;30.60;;;25.87;;
7485;SDS011;3784;54.098;9.998;2022-11-15T09:05:05;28.53;;;23.97;;
7485;SDS011;3784;54.098;9.998;2022-11-15T09:07:35;28.87;;;23.97;;
7485;SDS011;3784;54.098;9.998;2022-11-15T09:10:04;29.60;;;24.33;;
7485;SDS011;3784;54.098;9.998;2022-11-15T09:12:36;27.80;;;24.40;;
7485;SDS011;3784;54.098;9.998;2022-11-15T09:15:03;29.47;;;23.60;;
7485;SDS011;3784;54.098;9.998;2022-11-15T09:17:30;26.83;;;23.20;;
7485;SDS011;3784;54.098;9.998;2022-11-15T09:19:57;28.77;;;23.97;;
7485;SDS011;3784;54.098;9.998;2022-11-15T09:22:23;28.47;;;24.33;;
7485;SDS011;3784;54.098;9.998;2022-11-15T09:24:50;28.50;;;24.20;;
7485;SDS011;3784;54.098;9.998;2022-11-15T09:27:16;26.20;;;22.90;;
7485;SDS011;3784;54.098;9.998;2022-11-15T09:29:42;29.87;;;25.17;;
7485;SDS011;3784;54.098;9.998;2022-11-15T09:32:09;27.60;;;23.00;;
7485;SDS011;3784;54.098;9.998;2022-11-15T09:34:35;25.80;;;22.20;;
7485;SDS011;3784;54.098;9.998;2022-11-15T09:37:02;26.60;;;22.70;;
7485;SDS011;3784;54.098;9.998;2022-11-15T09:39:28;26.27;;;21.80;;
7485;SDS011;3784;54.098;9.998;2022-11-15T09:42:02;27.97;;;24.40;;
7485;SDS011;3784;54.098;9.998;2022-11-15T09:49:34;26.53;;;23.70;;
7485;SDS011;3784;54.098;9.998;2022-11-15T09:52:01;28.47;;;23.03;;
7485;SDS011;3784;54.098;9.998;2022-11-15T09:54:32;27.13;;;22.53;;
7485;SDS011;3784;54.098;9.998;2022-11-15T09:57:31;24.67;;;20.43;;
7485;SDS011;3784;54.098;9.998;2022-11-15T10:03:03;23.77;;;21.10;;
7485;SDS011;3784;54.098;9.998;2022-11-15T10:05:39;23.57;;;19.77;;
7485;SDS011;3784;54.098;9.998;2022-11-15T10:10:47;23.17;;;20.53;;
7485;SDS011;3784;54.098;9.998;2022-11-15T10:13:37;24.17;;;20.63;;
7485;SDS011;3784;54.098;9.998;2022-11-15T10:24:19;24.43;;;21.40;;
7485;SDS011;3784;54.098;9.998;2022-11-15T10:26:50;24.57;;;20.63;;
7485;SDS011;3784;54.098;9.998;2022-11-15T10:29:20;25.00;;;22.40;;
7485;SDS011;3784;54.098;9.998;2022-11-15T10:31:52;26.77;;;23.57;;
7485;SDS011;3784;54.098;9.998;2022-11-15T10:34:20;30.73;;;26.70;;
7485;SDS011;3784;54.098;9.998;2022-11-15T10:36:55;46.13;;;38.50;;
7485;SDS011;3784;54.098;9.998;2022-11-15T10:39:23;26.10;;;23.33;;
7485;SDS011;3784;54.098;9.998;2022-11-15T10:41:49;26.77;;;21.50;;
7485;SDS011;3784;54.098;9.998;2022-11-15T10:46:43;23.77;;;20.17;;
7485;SDS011;3784;54.098;9.998;2022-11-15T10:49:15;24.77;;;20.50;;
7485;SDS011;3784;54.098;9.998;2022-11-15T10:51:50;22.00;;;19.70;;
7485;SDS011;3784;54.098;9.998;2022-11-15T10:57:00;22.37;;;19.83;;
7485;SDS011;3784;54.098;9.998;2022-11-15T10:59:32;22.63;;;20.23;;
7485;SDS011;3784;54.098;9.998;2022-11-15T11:02:23;21.80;;;19.40;;
7485;SDS011;3784;54.098;9.998;2022-11-15T11:04:53;21.17;;;18.50;;
7485;SDS011;3784;54.098;9.998;2022-11-15T11:07:20;24.10;;;19.67;;
7485;SDS011;3784;54.098;9.998;2022-11-15T11:13:15;21.53;;;19.43;;
7485;SDS011;3784;54.098;9.998;2022-11-15T11:15:57;20.90;;;18.67;;
7485;SDS011;3784;54.098;9.998;2022-11-15T11:18:26;21.77;;;19.53;;
7485;SDS011;3784;54.098;9.998;2022-11-15T11:20:58;22.37;;;20.07;;
7485;SDS011;3784;54.098;9.998;2022-11-15T11:23:36;21.17;;;19.00;;
7485;SDS011;3784;54.098;9.998;2022-11-15T11:26:18;21.87;;;19.57;;
7485;SDS011;3784;54.098;9.998;2022-11-15T11:29:06;20.53;;;17.93;;
7485;SDS011;3784;54.098;9.998;2022-11-15T11:42:17;18.47;;;16.67;;
7485;SDS011;3784;54.098;9.998;2022-11-15T11:47:24;19.13;;;17.20;;
7485;SDS011;3784;54.098;9.998;2022-11-15T11:50:00;19.27;;;17.27;;
7485;SDS011;3784;54.098;9.998;2022-11-15T11:52:33;18.80;;;16.93;;
7485;SDS011;3784;54.098;9.998;2022-11-15T12:06:27;17.90;;;16.13;;
7485;SDS011;3784;54.098;9.998;2022-11-15T12:12:07;18.57;;;16.43;;
7485;SDS011;3784;54.098;9.998;2022-11-15T12:14:40;18.10;;;16.30;;
7485;SDS011;3784;54.098;9.998;2022-11-15T12:17:12;17.37;;;15.53;;
7485;SDS011;3784;54.098;9.998;2022-11-15T12:19:39;18.97;;;16.53;;
7485;SDS011;3784;54.098;9.998;2022-11-15T12:25:08;18.93;;;15.67;;
7485;SDS011;3784;54.098;9.998;2022-11-15T12:27:42;17.87;;;16.03;;
7485;SDS011;3784;54.098;9.998;2022-11-15T12:30:13;18.93;;;16.73;;
7485;SDS011;3784;54.098;9.998;2022-11-15T12:32:52;16.77;;;15.07;;
7485;SDS011;3784;54.098;9.998;2022-11-15T12:38:01;18.33;;;16.37;;
7485;SDS011;3784;54.098;9.998;2022-11-15T12:40:32;17.97;;;15.27;;
7485;SDS011;3784;54.098;9.998;2022-11-15T12:43:02;16.03;;;14.40;;
7485;SDS011;3784;54.098;9.998;2022-11-15T12:45:51;15.97;;;14.30;;
7485;SDS011;3784;54.098;9.998;2022-11-15T13:06:56;16.43;;;14.67;;
7485;SDS011;3784;54.098;9.998;2022-11-15T13:12:00;19.10;;;17.20;;
7485;SDS011;3784;54.098;9.998;2022-11-15T13:19:46;16.07;;;14.47;;
7485;SDS011;3784;54.098;9.998;2022-11-15T13:22:14;17.00;;;15.23;;
7485;SDS011;3784;54.098;9.998;2022-11-15T13:25:00;17.23;;;14.53;;
7485;SDS011;3784;54.098;9.998;2022-11-15T13:27:27;18.07;;;15.57;;
7485;SDS011;3784;54.098;9.998;2022-11-15T13:29:55;16.20;;;14.57;;
7485;SDS011;3784;54.098;9.998;2022-11-15T13:32:21;16.50;;;14.67;;
7485;SDS011;3784;54.098;9.998;2022-11-15T13:34:49;16.80;;;15.10;;
7485;SDS011;3784;54.098;9.998;2022-11-15T13:39:48;16.40;;;14.57;;
7485;SDS011;3784;54.098;9.998;2022-11-15T13:42:19;16.20;;;13.70;;
7485;SDS011;3784;54.098;9.998;2022-11-15T13:44:59;16.40;;;14.70;;
7485;SDS011;3784;54.098;9.998;2022-11-15T13:47:28;16.57;;;13.70;;
7485;SDS011;3784;54.098;9.998;2022-11-15T13:49:59;16.73;;;14.30;;
7485;SDS011;3784;54.098;9.998;2022-11-15T13:52:28;17.40;;;13.83;;
7485;SDS011;3784;54.098;9.998;2022-11-15T13:55:02;15.37;;;13.67;;
7485;SDS011;3784;54.098;9.998;2022-11-15T13:57:56;15.67;;;13.80;;
7485;SDS011;3784;54.098;9.998;2022-11-15T14:11:28;14.37;;;12.87;;
7485;SDS011;3784;54.098;9.998;2022-11-15T14:14:01;16.43;;;13.80;;
7485;SDS011;3784;54.098;9.998;2022-11-15T14:17:02;15.27;;;13.83;;
7485;SDS011;3784;54.098;9.998;2022-11-15T14:27:39;17.00;;;15.33;;
7485;SDS011;3784;54.098;9.998;2022-11-15T14:30:12;15.60;;;14.00;;
7485;SDS011;3784;54.098;9.998;2022-11-15T14:32:47;18.63;;;16.10;;
7485;SDS011;3784;54.098;9.998;2022-11-15T14:35:18;18.03;;;16.10;;
7485;SDS011;3784;54.098;9.998;2022-11-15T14:37:47;20.60;;;17.77;;
7485;SDS011;3784;54.098;9.998;2022-11-15T14:40:15;18.03;;;16.23;;
7485;SDS011;3784;54.098;9.998;2022-11-15T14:42:44;17.77;;;15.30;;
7485;SDS011;3784;54.098;9.998;2022-11-15T14:45:15;17.00;;;15.30;;
7485;SDS011;3784;54.098;9.998;2022-11-15T14:47:44;16.07;;;14.47;;
7485;SDS011;3784;54.098;9.998;2022-11-15T14:50:20;16.53;;;14.43;;
7485;SDS011;3784;54.098;9.998;2022-11-15T14:52:47;16.73;;;14.87;;
7485;SDS011;3784;54.098;9.998;2022-11-15T14:57:45;16.20;;;14.50;;
7485;SDS011;3784;54.098;9.998;2022-11-15T15:00:12;16.33;;;14.73;;
7485;SDS011;3784;54.098;9.998;2022-11-15T15:02:40;16.57;;;14.87;;
7485;SDS011;3784;54.098;9.998;2022-11-15T15:05:12;17.07;;;15.23;;
7485;SDS011;3784;54.098;9.998;2022-11-15T15:07:46;16.67;;;14.97;;
7485;SDS011;3784;54.098;9.998;2022-11-15T15:10:14;18.00;;;14.00;;
7485;SDS011;3784;54.098;9.998;2022-11-15T15:13:01;15.40;;;13.80;;
7485;SDS011;3784;54.098;9.998;2022-11-15T15:15:32;16.20;;;14.57;;
7485;SDS011;3784;54.098;9.998;2022-11-15T15:18:00;15.60;;;13.97;;
7485;SDS011;3784;54.098;9.998;2022-11-15T15:20:27;16.23;;;14.53;;
7485;SDS011;3784;54.098;9.998;2022-11-15T15:22:54;21.17;;;18.97;;
7485;SDS011;3784;54.098;9.998;2022-11-15T15:25:31;18.03;;;16.17;;
7485;SDS011;3784;54.098;9.998;2022-11-15T15:27:59;17.60;;;15.63;;
7485;SDS011;3784;54.098;9.998;2022-11-15T15:30:26;17.87;;;16.00;;
7485;SDS011;3784;54.098;9.998;2022-11-15T15:32:54;16.80;;;15.03;;
7485;SDS011;3784;54.098;9.998;2022-11-15T15:35:21;17.67;;;15.20;;
7485;SDS011;3784;54.098;9.998;2022-11-15T15:37:48;18.70;;;14.90;;
7485;SDS011;3784;54.098;9.998;2022-11-15T15:40:18;18.70;;;16.80;;
7485;SDS011;3784;54.098;9.998;2022-11-15T15:42:46;16.47;;;14.63;;
7485;SDS011;3784;54.098;9.998;2022-11-15T15:45:13;19.53;;;16.27;;
7485;SDS011;3784;54.098;9.998;2022-11-15T15:47:41;20.90;;;18.00;;
7485;SDS011;3784;54.098;9.998;2022-11-15T15:52:46;21.50;;;19.37;;
7485;SDS011;3784;54.098;9.998;2022-11-15T15:55:12;19.30;;;17.30;;
7485;SDS011;3784;54.098;9.998;2022-11-15T15:57:39;18.67;;;16.70;;
7485;SDS011;3784;54.098;9.998;2022-11-15T16:00:06;18.30;;;16.40;;
7485;SDS011;3784;54.098;9.998;2022-11-15T16:02:33;16.10;;;14.47;;
7485;SDS011;3784;54.098;9.998;2022-11-15T16:05:05;18.80;;;15.53;;
7485;SDS011;3784;54.098;9.998;2022-11-15T16:07:33;16.87;;;14.37;;
7485;SDS011;3784;54.098;9.998;2022-11-15T16:09:59;15.27;;;13.67;;
7485;SDS011;3784;54.098;9.998;2022-11-15T16:12:30;16.60;;;14.80;;
7485;SDS011;3784;54.098;9.998;2022-11-15T16:15:00;16.70;;;15.00;;
7485;SDS011;3784;54.098;9.998;2022-11-15T16:17:31;17.87;;;15.10;;
7485;SDS011;3784;54.098;9.998;2022-11-15T16:20:00;17.83;;;15.50;;
7485;SDS011;3784;54.098;9.998;2022-11-15T16:22:27;22.63;;;19.27;;
7485;SDS011;3784;54.098;9.998;2022-11-15T16:24:55;37.40;;;29.30;;
7485;SDS011;3784;54.098;9.998;2022-11-15T16:27:22;31.03;;;24.97;;
7485;SDS011;3784;54.098;9.998;2022-11-15T16:29:49;26.63;;;20.63;;
7485;SDS011;3784;54.098;9.998;2022-11-15T16:32:16;22.37;;;19.93;;
7485;SDS011;3784;54.098;9.998;2022-11-15T16:34:43;32.43;;;29.00;;
7485;SDS011;3784;54.098;9.998;2022-11-15T16:37:23;40.40;;;36.10;;
7485;SDS011;3784;54.098;9.998;2022-11-15T16:39:51;27.43;;;24.63;;
7485;SDS011;3784;54.098;9.998;2022-11-15T16:44:56;27.37;;;24.60;;
7485;SDS011;3784;54.098;9.998;2022-11-15T16:47:23;22.23;;;20.03;;
7485;SDS011;3784;54.098;9.998;2022-11-15T16:49:49;23.83;;;21.43;;
7485;SDS011;3784;54.098;9.998;2022-11-15T16:52:16;32.03;;;26.17;;
7485;SDS011;3784;54.098;9.998;2022-11-15T16:54:46;25.47;;;22.87;;
7485;SDS011;3784;54.098;9.998;2022-11-15T16:57:13;29.63;;;26.53;;
7485;SDS011;3784;54.098;9.998;2022-11-15T16:59:39;22.80;;;20.20;;
7485;SDS011;3784;54.098;9.998;2022-11-15T17:02:11;23.83;;;21.33;;
7485;SDS011;3784;54.098;9.998;2022-11-15T17:04:37;22.23;;;19.83;;
7485;SDS011;3784;54.098;9.998;2022-11-15T17:07:04;21.40;;;18.53;;
7485;SDS011;3784;54.098;9.998;2022-11-15T17:09:31;20.70;;;18.13;;
7485;SDS011;3784;54.098;9.998;2022-11-15T17:11:58;24.83;;;22.37;;
7485;SDS011;3784;54.098;9.998;2022-11-15T17:14:24;27.10;;;23.80;;
7485;SDS011;3784;54.098;9.998;2022-11-15T17:16:51;25.80;;;22.43;;
7485;SDS011;3784;54.098;9.998;2022-11-15T17:19:18;35.27;;;31.67;;
7485;SDS011;3784;54.098;9.998;2022-11-15T17:21:46;28.33;;;25.33;;
7485;SDS011;3784;54.098;9.998;2022-11-15T17:24:16;27.23;;;24.33;;
7485;SDS011;3784;54.098;9.998;2022-11-15T17:26:43;31.17;;;25.83;;
7485;SDS011;3784;54.098;9.998;2022-11-15T17:29:09;35.37;;;31.57;;